Página principal
METAR-TAF:

METAR-TAF

Aeroportos :

Churchill, Manitoba, Canadá

latitude: 58-44N, longitude: 094-04W, altura: 28 m

Observação actual do tempo

O boletim foi feito há 11 minutos, às 14:40 UTC
Vento 11 kt de oes-noroeste
Temperatura -38°C
Humidade 73%
Pressão 1032 hPa
Visibilidade: 16.1 km
Céu limpo
cristais de gelo

METAR: CYYQ 191440Z 29011KT 10SM IC SKC M38/M41 A3048 RMK SLP330

Hora: 08:51 (14:51 UTC)

Previsão

O boletim foi feito há 3 horas e 13 minutos, às 11:38 UTC
Previsão válida de 19 às 12 UTC a 20 às 12 UTC
Vento 12 kt de noroeste
Visibilidade: 10 km
Céu limpo
A partir de 19 às 2100 UTC
Vento 18 kt de oeste com rajadas de 28 kt
Visibilidade: 10 km
Nuvens dispersasa uma altura de 10000 ft
Probabilidade 40%
de 19 às 21 UTC a 20 às 12 UTC
Neve levantada pelo vento

TAF: CYYQ 191138Z 1912/2012 31012KT P6SM SKC FM192100 27018G28KT P6SM SCT100 PROB40 1921/2012 11/2SM BLSN RMK NXT FCST BY 191800Z

Observações e previsões do tempo de mais de 4000 aeroportos (mensagens METAR e TAF).

As estações disponíveis são os pontos amarelos e vermelhos sobre o mapa.

Mova o rato sobre o mapa para ver o nome da estação.

Depois clique no ponto para visualizar as observações e previsões meteorológicas.

Para alterar o mapa : clique nos botões verdes com uma cruz preta para aumentar o zoom; no botão verde com uma pitada de zoom; ou nas setas verdes para mapas adjacentes.


METAR-TAF: